createdAt,value
2023-03-17T04:42:21.226Z,0.44
2023-03-17T04:45:24.378Z,0.44
2023-03-17T04:48:26.978Z,-0.05
2023-03-17T04:51:29.900Z,-0.03
2023-03-17T04:54:32.331Z,-0.01
2023-03-17T04:57:36.582Z,0.04
2023-03-17T05:00:40.112Z,0.06
2023-03-17T05:03:43.180Z,0.10
2023-03-17T05:06:45.757Z,0.14
2023-03-17T05:09:48.902Z,0.17
2023-03-17T05:12:52.383Z,0.21
2023-03-17T05:15:56.257Z,0.30
2023-03-17T05:18:58.869Z,0.33
2023-03-17T05:22:01.772Z,0.42
2023-03-17T05:25:04.680Z,0.50
2023-03-17T05:28:08.729Z,0.54
2023-03-17T05:31:11.762Z,0.52
2023-03-17T05:34:15.878Z,0.62
2023-03-17T05:37:18.234Z,0.64
2023-03-17T05:40:22.603Z,0.68
2023-03-17T05:43:26.296Z,0.83
2023-03-17T05:46:29.013Z,0.97
2023-03-17T05:49:32.071Z,1.13
2023-03-17T05:52:35.163Z,1.27
2023-03-17T05:55:37.591Z,1.41
2023-03-17T05:58:40.727Z,1.58
2023-03-17T06:01:43.268Z,1.71
2023-03-17T06:04:46.212Z,1.76
2023-03-17T06:07:54.955Z,1.77
2023-03-17T06:10:59.029Z,1.98
2023-03-17T06:14:01.672Z,2.14
2023-03-17T06:17:06.420Z,2.26
2023-03-17T06:20:09.670Z,2.44
2023-03-17T06:23:12.383Z,2.59
2023-03-17T06:26:14.772Z,2.72
2023-03-17T06:29:17.454Z,2.88
2023-03-17T06:32:21.225Z,3.03
2023-03-17T06:35:25.233Z,3.20
2023-03-17T06:38:28.282Z,3.38
2023-03-17T06:41:31.359Z,3.85
2023-03-17T06:44:34.123Z,4.50
2023-03-17T06:47:37.326Z,5.74
2023-03-17T06:50:39.787Z,7.47
2023-03-17T06:53:42.437Z,7.95
2023-03-17T06:56:45.045Z,8.10
2023-03-17T06:59:47.700Z,9.55
2023-03-17T07:02:50.180Z,12.45
2023-03-17T07:05:53.231Z,13.56
2023-03-17T07:08:56.614Z,11.93
2023-03-17T07:11:59.264Z,10.15
2023-03-17T07:15:02.075Z,8.43
2023-03-17T07:18:06.929Z,7.83
2023-03-17T07:21:09.475Z,7.44
2023-03-17T07:24:12.508Z,7.18
2023-03-17T07:27:16.604Z,7.42
2023-03-17T07:30:19.822Z,8.67
2023-03-17T07:33:22.244Z,11.15
2023-03-17T07:36:25.079Z,12.26
2023-03-17T07:39:27.747Z,13.60
2023-03-17T07:42:30.680Z,14.14
2023-03-17T07:45:35.223Z,14.44
2023-03-17T07:48:42.069Z,13.73
2023-03-17T07:51:44.530Z,13.73
2023-03-17T07:54:47.489Z,14.97
2023-03-17T07:57:50.038Z,15.74
2023-03-17T08:00:52.825Z,17.69
2023-03-17T08:03:56.592Z,18.64
2023-03-17T08:06:59.176Z,17.96
2023-03-17T08:10:02.447Z,20.59
2023-03-17T08:13:04.951Z,20.41
2023-03-17T08:16:08.015Z,20.08
2023-03-17T08:19:11.078Z,20.56
2023-03-17T08:22:14.225Z,20.92
2023-03-17T08:25:17.787Z,21.49
2023-03-17T08:28:21.013Z,22.02
2023-03-17T08:31:23.492Z,19.75
2023-03-17T08:34:26.341Z,17.77
2023-03-17T08:37:28.720Z,17.76
2023-03-17T08:40:31.763Z,18.97
2023-03-17T08:43:35.446Z,20.12
2023-03-17T08:46:38.089Z,21.82
2023-03-17T08:49:45.973Z,23.20
2023-03-17T08:52:51.750Z,23.08
2023-03-17T08:55:56.510Z,20.85
2023-03-17T08:59:00.141Z,21.23
2023-03-17T09:02:04.029Z,22.91
2023-03-17T09:05:07.659Z,24.37
2023-03-17T09:08:11.953Z,25.73
2023-03-17T09:11:17.121Z,26.16
2023-03-17T09:14:20.079Z,24.60
2023-03-17T09:17:23.322Z,20.64
2023-03-17T09:20:25.958Z,17.08
2023-03-17T09:23:28.720Z,13.79
2023-03-17T09:26:31.510Z,12.71
2023-03-17T09:29:34.371Z,12.40
2023-03-17T09:32:37.352Z,12.06
2023-03-17T09:35:41.035Z,11.63
2023-03-17T09:38:44.517Z,11.39
2023-03-17T09:41:58.431Z,11.39
2023-03-17T09:45:16.228Z,11.18
2023-03-17T09:48:34.225Z,11.01
2023-03-17T09:51:38.481Z,11.18
2023-03-17T09:54:42.113Z,11.42
2023-03-17T09:57:44.978Z,11.44
2023-03-17T10:00:47.858Z,11.14
2023-03-17T10:03:51.596Z,11.01
2023-03-17T10:07:02.144Z,11.25
2023-03-17T10:10:30.287Z,11.22
2023-03-17T10:13:38.867Z,10.93
2023-03-17T10:16:55.625Z,10.89
2023-03-17T10:20:00.715Z,11.02
2023-03-17T10:23:07.116Z,11.14
2023-03-17T10:26:32.782Z,11.13
2023-03-17T10:29:36.049Z,11.15
2023-03-17T10:32:39.585Z,11.15
2023-03-17T10:35:44.735Z,11.44
2023-03-17T10:38:56.114Z,11.27
2023-03-17T10:42:09.583Z,11.11
2023-03-17T10:45:16.978Z,11.24
2023-03-17T10:48:20.642Z,11.26
2023-03-17T10:51:46.413Z,11.43
2023-03-17T10:54:53.057Z,11.66
2023-03-17T10:58:37.138Z,11.67
2023-03-17T11:01:44.103Z,11.58
2023-03-17T11:04:49.721Z,11.50
2023-03-17T11:08:05.779Z,11.47
2023-03-17T11:11:28.685Z,11.58
2023-03-17T11:14:32.000Z,11.67
2023-03-17T11:17:59.681Z,11.78
2023-03-17T11:21:09.687Z,11.46
2023-03-17T11:24:33.548Z,11.35
2023-03-17T11:27:47.009Z,11.35
2023-03-17T11:30:53.366Z,11.45
2023-03-17T11:34:19.986Z,11.51
2023-03-17T11:37:37.508Z,11.47
2023-03-17T11:40:57.592Z,11.28
2023-03-17T11:44:09.317Z,11.47
2023-03-17T11:47:46.249Z,11.52
2023-03-17T11:51:15.397Z,11.53
2023-03-17T11:54:40.062Z,11.39
2023-03-17T11:57:48.471Z,11.55
2023-03-17T12:00:58.282Z,11.35
2023-03-17T12:04:20.067Z,11.46
2023-03-17T12:07:53.148Z,11.20
2023-03-17T12:10:58.983Z,11.07
2023-03-17T12:14:06.329Z,11.21
2023-03-17T12:17:39.292Z,11.35
2023-03-17T12:20:54.337Z,11.33
2023-03-17T12:24:04.362Z,11.50
2023-03-17T12:27:16.972Z,11.33
2023-03-17T12:30:37.174Z,11.43
2023-03-17T12:34:17.193Z,11.23
2023-03-17T12:37:21.506Z,11.16
2023-03-17T12:40:35.475Z,11.15
2023-03-17T12:43:53.448Z,11.22
2023-03-17T12:47:14.212Z,11.25
2023-03-17T12:50:31.703Z,11.49
2023-03-17T12:53:37.859Z,11.53
2023-03-17T12:56:46.184Z,11.34
2023-03-17T12:59:57.478Z,11.35
2023-03-17T13:03:17.401Z,11.48
2023-03-17T13:06:24.649Z,11.59
2023-03-17T13:09:37.249Z,11.50
2023-03-17T13:12:39.632Z,11.25
2023-03-17T13:15:42.529Z,11.14
2023-03-17T13:18:49.383Z,11.14
2023-03-17T13:22:21.382Z,11.32
2023-03-17T13:25:33.603Z,11.46
2023-03-17T13:28:36.778Z,11.72
2023-03-17T13:31:39.603Z,11.73
2023-03-17T13:35:16.738Z,11.65
2023-03-17T13:38:34.775Z,11.76
2023-03-17T13:41:51.855Z,11.80
2023-03-17T13:45:10.185Z,11.80
2023-03-17T13:48:36.368Z,12.01
2023-03-17T13:51:49.278Z,11.92
2023-03-17T13:55:23.735Z,11.88
2023-03-17T13:58:33.380Z,11.80
2023-03-17T14:01:52.572Z,11.91
2023-03-17T14:05:27.160Z,11.97
2023-03-17T14:08:31.363Z,11.83
2023-03-17T14:11:41.358Z,11.85
2023-03-17T14:14:56.410Z,11.84
2023-03-17T14:18:15.413Z,11.82
2023-03-17T14:21:24.885Z,11.90
2023-03-17T14:24:33.740Z,11.87
2023-03-17T14:27:37.877Z,11.64
2023-03-17T14:30:53.981Z,11.57
2023-03-17T14:34:00.880Z,11.59
2023-03-17T14:37:04.680Z,11.77
2023-03-17T14:40:24.200Z,11.93
2023-03-17T14:43:26.974Z,12.05
2023-03-17T14:46:38.551Z,12.06
2023-03-17T14:49:42.311Z,12.04
2023-03-17T14:52:44.752Z,11.76
2023-03-17T14:55:47.674Z,11.76
2023-03-17T14:58:52.374Z,11.76
2023-03-17T15:01:57.405Z,11.74
2023-03-17T15:05:03.370Z,11.58
2023-03-17T15:08:42.702Z,11.65
2023-03-17T15:11:46.687Z,11.73
2023-03-17T15:14:56.280Z,11.84
2023-03-17T15:18:02.959Z,11.71
2023-03-17T15:21:39.408Z,11.51
2023-03-17T15:24:44.030Z,11.60
2023-03-17T15:27:47.463Z,11.51
2023-03-17T15:30:53.047Z,11.41
2023-03-17T15:33:57.083Z,11.31
2023-03-17T15:36:59.363Z,11.29
2023-03-17T15:40:03.434Z,11.25
2023-03-17T15:43:06.348Z,11.23
2023-03-17T15:46:21.548Z,11.24
2023-03-17T15:49:26.975Z,11.20
2023-03-17T15:52:29.912Z,10.93
2023-03-17T15:55:32.940Z,10.84
2023-03-17T15:58:36.255Z,10.76
2023-03-17T16:01:39.707Z,10.67
2023-03-17T16:04:42.522Z,10.62
2023-03-17T16:07:45.911Z,10.54
2023-03-17T16:10:48.707Z,10.32
2023-03-17T16:13:51.111Z,10.40
2023-03-17T16:16:54.007Z,10.18
2023-03-17T16:19:57.217Z,10.13
2023-03-17T16:23:07.529Z,10.13
2023-03-17T16:26:15.872Z,10.02
2023-03-17T16:29:20.928Z,9.89
2023-03-17T16:32:23.822Z,9.75
2023-03-17T16:35:26.659Z,9.76
2023-03-17T16:38:31.885Z,9.67
2023-03-17T16:41:35.260Z,9.52
2023-03-17T16:44:38.074Z,9.46
